Weather at Cherokee County Regional Airport

Public forecast

Using degrees Fahrenheit for public forecast. Weather courtesy of forecast.io.

Current aviation weather report (METAR) for Cherokee County Regional Airport

Retrieved 2021/10/25 07:15 UTC (0 seconds ago):

KCNI 250715Z AUTO 00000KT 10SM CLR 15/14 A3003 RMK AO2

Closest aviation forecast (TAF) to Cherokee County Regional Airport

Closest forecast is Cobb County-Mc Collum Field, 19.9 nm (36.8 km) SSW. Retrieved 2021/10/25 06:42 UTC (19 minutes ago):

TAF KRYY 250540Z 2506/2606 13004KT P6SM BKN250 FM251200 19006KT P6SM SCT040 BKN070 FM251500 21008KT P6SM SCT035 BKN060 FM251800 23009G14KT P6SM VCSH SCT025 BKN035 PROB30 2519/2522 VRB10G20KT 5SM -TSRA BR OVC025CB FM260000 29010G17KT P6SM FEW030 SCT060